createdAt,value
2019-05-28T00:01:30.485Z,99.90
2019-05-28T00:03:59.213Z,99.90
2019-05-28T00:06:27.902Z,99.90
2019-05-28T00:08:56.594Z,99.90
2019-05-28T00:11:25.307Z,99.90
2019-05-28T00:13:55.641Z,99.90
2019-05-28T00:16:24.358Z,99.90
2019-05-28T00:18:53.059Z,99.90
2019-05-28T00:21:21.760Z,99.90
2019-05-28T00:23:50.482Z,99.90
2019-05-28T00:26:19.187Z,99.90
2019-05-28T00:28:47.890Z,99.90
2019-05-28T00:31:16.598Z,99.90
2019-05-28T00:33:45.309Z,99.90
2019-05-28T00:36:14.013Z,99.90
2019-05-28T00:38:42.713Z,99.90
2019-05-28T00:41:11.428Z,99.90
2019-05-28T00:43:40.124Z,99.90
2019-05-28T00:46:08.941Z,99.90
2019-05-28T00:48:37.653Z,99.90
2019-05-28T00:51:06.370Z,99.90
2019-05-28T00:53:35.057Z,99.90
2019-05-28T00:56:03.977Z,99.90
2019-05-28T00:58:33.582Z,99.90
2019-05-28T01:01:02.296Z,99.90
2019-05-28T01:03:31.025Z,99.90
2019-05-28T01:05:59.713Z,99.90
2019-05-28T01:08:28.465Z,99.90
2019-05-28T01:10:57.174Z,99.90
2019-05-28T01:13:25.945Z,99.90
2019-05-28T01:15:54.656Z,99.90
2019-05-28T01:18:23.356Z,99.90
2019-05-28T01:20:52.074Z,99.90
2019-05-28T01:23:20.788Z,99.90
2019-05-28T01:25:49.504Z,99.90
2019-05-28T01:28:18.224Z,99.90
2019-05-28T01:30:56.124Z,99.90
2019-05-28T01:33:17.305Z,99.90
2019-05-28T01:35:45.991Z,99.90
2019-05-28T01:38:14.734Z,99.90
2019-05-28T01:40:43.425Z,99.90
2019-05-28T01:43:12.124Z,99.90
2019-05-28T01:45:40.843Z,99.90
2019-05-28T01:48:09.544Z,99.90
2019-05-28T01:50:38.260Z,99.90
2019-05-28T01:53:06.964Z,99.90
2019-05-28T01:55:35.692Z,99.90
2019-05-28T01:58:04.407Z,99.90
2019-05-28T02:00:33.122Z,99.90
2019-05-28T02:03:01.821Z,99.90
2019-05-28T02:05:30.585Z,99.90
2019-05-28T02:07:59.371Z,99.90
2019-05-28T02:10:28.069Z,99.90
2019-05-28T02:12:56.772Z,99.90
2019-05-28T02:15:25.786Z,99.90
2019-05-28T02:17:54.498Z,99.90
2019-05-28T02:20:23.224Z,99.90
2019-05-28T02:22:51.932Z,99.90
2019-05-28T02:25:20.624Z,99.90
2019-05-28T02:27:49.334Z,99.90
2019-05-28T02:30:18.825Z,99.90
2019-05-28T02:32:47.542Z,99.90
2019-05-28T02:35:16.640Z,99.90
2019-05-28T02:37:45.417Z,99.60
2019-05-28T02:40:14.692Z,99.30
2019-05-28T02:42:43.479Z,99.30
2019-05-28T02:45:15.132Z,99.30
2019-05-28T02:47:43.857Z,99.30
2019-05-28T02:50:13.261Z,99.40
2019-05-28T02:52:42.866Z,99.40
2019-05-28T02:55:12.332Z,99.20
2019-05-28T02:57:42.764Z,99.20
2019-05-28T03:00:16.267Z,99.50
2019-05-28T03:02:50.293Z,99.40
2019-05-28T03:05:19.291Z,99.30
2019-05-28T03:07:49.878Z,99.00
2019-05-28T03:10:21.596Z,98.90
2019-05-28T03:12:50.320Z,98.80
2019-05-28T03:15:19.025Z,98.60
2019-05-28T03:17:48.942Z,99.00
2019-05-28T03:20:18.058Z,98.40
2019-05-28T03:22:47.781Z,98.70
2019-05-28T03:25:18.225Z,99.00
2019-05-28T03:27:46.925Z,99.00
2019-05-28T03:30:15.735Z,99.00
2019-05-28T03:32:44.438Z,98.80
2019-05-28T03:35:13.150Z,98.90
2019-05-28T03:37:44.148Z,98.70
2019-05-28T03:40:13.660Z,98.90
2019-05-28T03:42:42.364Z,98.80
2019-05-28T03:45:11.084Z,98.60
2019-05-28T03:47:39.786Z,98.40
2019-05-28T03:50:08.685Z,98.60
2019-05-28T03:52:37.398Z,98.00
2019-05-28T03:55:08.800Z,98.10
2019-05-28T03:57:37.520Z,97.90
2019-05-28T04:00:06.418Z,97.50
2019-05-28T04:02:35.133Z,97.40
2019-05-28T04:05:04.324Z,97.60
2019-05-28T04:07:33.041Z,97.00
2019-05-28T04:10:01.773Z,96.80
2019-05-28T04:12:30.445Z,96.80
2019-05-28T04:14:59.160Z,96.90
2019-05-28T04:17:27.859Z,97.00
2019-05-28T04:19:56.567Z,97.50
2019-05-28T04:22:25.283Z,97.70
2019-05-28T04:24:53.969Z,98.00
2019-05-28T04:27:22.690Z,98.00
2019-05-28T04:29:51.657Z,97.40
2019-05-28T04:32:20.417Z,97.50
2019-05-28T04:34:49.105Z,97.70
2019-05-28T04:37:17.810Z,97.70
2019-05-28T04:39:46.524Z,97.70
2019-05-28T04:42:15.222Z,96.50
2019-05-28T04:44:43.961Z,96.10
2019-05-28T04:47:12.668Z,96.20
2019-05-28T04:49:41.369Z,96.60
2019-05-28T04:52:10.094Z,96.70
2019-05-28T04:54:38.789Z,96.50
2019-05-28T04:57:07.525Z,95.50
2019-05-28T04:59:36.209Z,95.20
2019-05-28T05:02:05.632Z,95.50
2019-05-28T05:04:34.330Z,94.90
2019-05-28T05:07:03.046Z,94.40
2019-05-28T05:09:31.757Z,94.00
2019-05-28T05:12:00.461Z,93.30
2019-05-28T05:14:29.217Z,92.10
2019-05-28T05:16:57.886Z,93.60
2019-05-28T05:19:26.592Z,92.40
2019-05-28T05:21:55.290Z,91.80
2019-05-28T05:24:24.059Z,91.50
2019-05-28T05:26:53.138Z,90.40
2019-05-28T05:29:21.949Z,90.00
2019-05-28T05:31:50.671Z,89.60
2019-05-28T05:34:19.366Z,87.90
2019-05-28T05:36:48.085Z,89.50
2019-05-28T05:39:16.776Z,90.50
2019-05-28T05:41:45.498Z,88.10
2019-05-28T05:44:14.223Z,89.80
2019-05-28T05:46:42.916Z,87.50
2019-05-28T05:49:11.653Z,81.60
2019-05-28T05:51:40.332Z,80.20
2019-05-28T05:54:09.053Z,81.60
2019-05-28T05:56:37.780Z,83.10
2019-05-28T05:59:06.473Z,85.80
2019-05-28T06:01:35.186Z,82.00
2019-05-28T06:04:03.897Z,83.30
2019-05-28T06:06:32.594Z,86.30
2019-05-28T06:09:01.308Z,86.10
2019-05-28T06:11:29.997Z,84.50
2019-05-28T06:13:58.712Z,82.60
2019-05-28T06:16:27.432Z,82.50
2019-05-28T06:18:56.197Z,83.40
2019-05-28T06:21:24.894Z,83.30
2019-05-28T06:23:53.611Z,83.10
2019-05-28T06:26:22.319Z,85.10
2019-05-28T06:28:51.023Z,81.70
2019-05-28T06:31:19.738Z,80.00
2019-05-28T06:33:56.929Z,80.10
2019-05-28T06:36:18.903Z,80.40
2019-05-28T06:38:47.615Z,85.00
2019-05-28T06:41:16.297Z,80.90
2019-05-28T06:43:45.037Z,78.30
2019-05-28T06:46:13.753Z,78.90
2019-05-28T06:48:42.446Z,80.10
2019-05-28T06:51:11.171Z,81.00
2019-05-28T06:53:39.870Z,84.80
2019-05-28T06:56:08.572Z,86.60
2019-05-28T06:58:39.772Z,86.20
2019-05-28T07:01:07.696Z,87.30
2019-05-28T07:03:36.679Z,89.50
2019-05-28T07:06:07.637Z,89.80
2019-05-28T07:08:35.732Z,87.10
2019-05-28T07:11:04.619Z,88.40
2019-05-28T07:13:33.327Z,88.70
2019-05-28T07:16:02.041Z,89.50
2019-05-28T07:18:30.741Z,90.00
2019-05-28T07:20:59.549Z,90.90
2019-05-28T07:23:28.256Z,90.00
2019-05-28T07:25:56.965Z,89.40
2019-05-28T07:28:25.675Z,89.60
2019-05-28T07:30:54.379Z,88.90
2019-05-28T07:33:23.089Z,90.00
2019-05-28T07:35:51.799Z,87.30
2019-05-28T07:38:20.521Z,84.70
2019-05-28T07:40:49.225Z,84.80
2019-05-28T07:43:17.937Z,85.80
2019-05-28T07:45:46.662Z,86.00
2019-05-28T07:48:15.381Z,83.70
2019-05-28T07:50:44.099Z,81.20
2019-05-28T07:53:12.844Z,79.00
2019-05-28T07:55:41.509Z,80.10
2019-05-28T07:58:10.223Z,80.00
2019-05-28T08:00:41.399Z,77.00
2019-05-28T08:03:10.201Z,74.30
2019-05-28T08:05:39.006Z,70.60
2019-05-28T08:08:08.920Z,71.30
2019-05-28T08:10:37.632Z,73.50
2019-05-28T08:13:09.261Z,72.80
2019-05-28T08:15:37.977Z,73.70
2019-05-28T08:18:06.690Z,70.30
2019-05-28T08:20:35.405Z,72.80
2019-05-28T08:23:04.120Z,73.20
2019-05-28T08:25:46.095Z,74.60
2019-05-28T08:28:18.589Z,75.40
2019-05-28T08:30:33.674Z,73.90
2019-05-28T08:33:02.425Z,76.20
2019-05-28T08:35:31.108Z,74.10
2019-05-28T08:37:59.825Z,74.00
2019-05-28T08:40:28.727Z,72.00
2019-05-28T08:42:57.600Z,68.80
2019-05-28T08:45:26.550Z,69.00
2019-05-28T08:47:55.255Z,67.80
2019-05-28T08:50:34.039Z,64.80
2019-05-28T08:52:54.328Z,62.00
2019-05-28T08:55:23.060Z,61.10
2019-05-28T08:57:51.777Z,60.80
2019-05-28T09:00:23.428Z,64.00
2019-05-28T09:02:52.149Z,63.40
2019-05-28T09:05:26.256Z,64.30
2019-05-28T09:07:51.205Z,66.00
2019-05-28T09:10:19.999Z,64.70
2019-05-28T09:12:48.769Z,63.90
2019-05-28T09:15:17.433Z,63.20
2019-05-28T09:17:46.137Z,64.40
2019-05-28T09:20:15.275Z,63.70
2019-05-28T09:22:43.985Z,63.70
2019-05-28T09:25:12.685Z,65.40
2019-05-28T09:27:41.396Z,64.70
2019-05-28T09:30:11.004Z,68.10
2019-05-28T09:32:39.809Z,68.80
2019-05-28T09:35:09.176Z,68.90
2019-05-28T09:37:37.953Z,69.00
2019-05-28T09:40:07.454Z,70.90
2019-05-28T09:42:36.242Z,70.10
2019-05-28T09:45:21.809Z,72.20
2019-05-28T09:47:38.275Z,71.30
2019-05-28T09:50:21.188Z,67.00
2019-05-28T09:52:53.023Z,68.20
2019-05-28T09:55:10.112Z,68.90
2019-05-28T09:57:46.840Z,67.70
2019-05-28T10:00:15.333Z,69.20
2019-05-28T10:02:44.298Z,69.30
2019-05-28T10:05:13.287Z,70.10
2019-05-28T10:07:42.009Z,68.00
2019-05-28T10:10:10.726Z,68.40
2019-05-28T10:12:39.436Z,66.60
2019-05-28T10:15:09.256Z,65.40
2019-05-28T10:17:37.964Z,64.70
2019-05-28T10:20:07.585Z,62.30
2019-05-28T10:22:36.377Z,58.40
2019-05-28T10:25:10.292Z,52.10
2019-05-28T10:27:39.012Z,49.30
2019-05-28T10:30:09.599Z,51.70
2019-05-28T10:32:38.308Z,55.00
2019-05-28T10:35:08.127Z,58.80
2019-05-28T10:37:36.835Z,61.20
2019-05-28T10:40:07.661Z,63.60
2019-05-28T10:42:36.371Z,65.40
2019-05-28T10:45:10.380Z,67.70
2019-05-28T10:47:39.099Z,65.90
2019-05-28T10:50:08.204Z,66.10
2019-05-28T10:52:36.951Z,66.50
2019-05-28T10:55:07.662Z,67.10
2019-05-28T10:57:36.409Z,62.80
2019-05-28T11:00:08.953Z,60.00
2019-05-28T11:02:37.607Z,60.80
2019-05-28T11:05:08.785Z,57.50
2019-05-28T11:07:37.564Z,59.00
2019-05-28T11:10:22.995Z,57.20
2019-05-28T11:12:40.288Z,60.30
2019-05-28T11:15:10.492Z,58.80
2019-05-28T11:17:39.200Z,58.20
2019-05-28T11:20:10.181Z,65.10
2019-05-28T11:22:38.896Z,59.70
2019-05-28T11:25:09.011Z,61.50
2019-05-28T11:27:37.790Z,61.40
2019-05-28T11:30:11.181Z,61.80
2019-05-28T11:32:39.889Z,58.80
2019-05-28T11:35:09.704Z,57.80
2019-05-28T11:37:38.409Z,55.70
2019-05-28T11:40:11.016Z,56.20
2019-05-28T11:42:40.328Z,54.60
2019-05-28T11:45:10.982Z,55.20
2019-05-28T11:47:39.932Z,52.10
2019-05-28T11:50:11.913Z,50.90
2019-05-28T11:52:40.688Z,54.30
2019-05-28T11:55:14.134Z,53.30
2019-05-28T11:57:42.912Z,55.90
2019-05-28T12:00:12.614Z,56.80
2019-05-28T12:02:41.376Z,58.20
2019-05-28T12:05:10.749Z,61.50
2019-05-28T12:07:39.466Z,66.60
2019-05-28T12:10:08.922Z,66.80
2019-05-28T12:12:38.972Z,69.30
2019-05-28T12:15:10.483Z,71.50
2019-05-28T12:17:43.318Z,71.50
2019-05-28T12:20:12.555Z,73.10
2019-05-28T12:22:41.944Z,72.00
2019-05-28T12:25:11.367Z,72.10
2019-05-28T12:27:40.077Z,72.80
2019-05-28T12:30:10.490Z,71.30
2019-05-28T12:32:39.193Z,71.40
2019-05-28T12:35:26.543Z,69.30
2019-05-28T12:37:47.754Z,68.60
2019-05-28T12:40:09.406Z,69.30
2019-05-28T12:42:38.117Z,70.20
2019-05-28T12:45:10.352Z,69.10
2019-05-28T12:47:39.165Z,68.00
2019-05-28T12:50:18.922Z,70.40
2019-05-28T12:52:38.969Z,70.10
2019-05-28T12:55:10.268Z,71.80
2019-05-28T12:57:39.063Z,73.50
2019-05-28T13:00:09.258Z,74.50
2019-05-28T13:02:37.989Z,76.00
2019-05-28T13:05:12.990Z,77.00
2019-05-28T13:07:41.699Z,78.00
2019-05-28T13:10:11.707Z,75.70
2019-05-28T13:12:40.435Z,75.80
2019-05-28T13:15:09.822Z,74.80
2019-05-28T13:17:38.538Z,76.60
2019-05-28T13:20:07.890Z,75.40
2019-05-28T13:22:36.664Z,73.10
2019-05-28T13:25:07.685Z,71.30
2019-05-28T13:27:36.394Z,71.80
2019-05-28T13:30:11.230Z,69.50
2019-05-28T13:32:40.776Z,67.40
2019-05-28T13:35:10.568Z,63.40
2019-05-28T13:37:39.668Z,65.20
2019-05-28T13:40:10.123Z,60.60
2019-05-28T13:42:38.890Z,57.70
2019-05-28T13:45:08.609Z,58.70
2019-05-28T13:47:37.382Z,59.50
2019-05-28T13:50:11.232Z,58.70
2019-05-28T13:52:39.944Z,58.60
2019-05-28T13:55:10.147Z,57.70
2019-05-28T13:57:39.677Z,57.60
2019-05-28T14:00:11.105Z,57.20
2019-05-28T14:02:45.007Z,56.00
2019-05-28T14:05:11.356Z,55.80
2019-05-28T14:07:40.055Z,55.50
2019-05-28T14:10:09.365Z,55.20
2019-05-28T14:12:38.077Z,56.80
2019-05-28T14:15:07.705Z,58.50
2019-05-28T14:17:36.396Z,58.10
2019-05-28T14:20:07.247Z,57.30
2019-05-28T14:22:36.606Z,57.20
2019-05-28T14:25:07.096Z,60.80
2019-05-28T14:27:35.917Z,60.80
2019-05-28T14:30:07.564Z,62.20
2019-05-28T14:32:36.279Z,64.80
2019-05-28T14:35:06.301Z,66.30
2019-05-28T14:37:35.014Z,66.80
2019-05-28T14:40:04.937Z,67.80
2019-05-28T14:42:33.662Z,67.20
2019-05-28T14:45:02.468Z,67.50
2019-05-28T14:47:31.185Z,67.90
2019-05-28T14:49:59.906Z,67.70
2019-05-28T14:52:28.623Z,65.60
2019-05-28T14:54:57.342Z,65.60
2019-05-28T14:57:26.052Z,66.30
2019-05-28T14:59:54.781Z,64.40
2019-05-28T15:02:23.487Z,63.90
2019-05-28T15:04:52.204Z,65.00
2019-05-28T15:07:20.905Z,64.40
2019-05-28T15:09:49.609Z,67.30
2019-05-28T15:12:18.318Z,67.50
2019-05-28T15:14:47.029Z,70.40
2019-05-28T15:17:15.730Z,71.00
2019-05-28T15:19:44.453Z,69.00
2019-05-28T15:22:13.163Z,68.30
2019-05-28T15:24:41.869Z,67.40
2019-05-28T15:27:10.572Z,69.50
2019-05-28T15:29:39.311Z,68.70
2019-05-28T15:32:08.025Z,67.80
2019-05-28T15:34:36.735Z,67.80
2019-05-28T15:37:05.465Z,66.00
2019-05-28T15:39:39.522Z,68.00
2019-05-28T15:42:04.798Z,66.30
2019-05-28T15:44:33.495Z,67.30
2019-05-28T15:47:02.209Z,65.80
2019-05-28T15:49:30.965Z,68.60
2019-05-28T15:52:07.760Z,67.70
2019-05-28T15:54:29.991Z,70.00
2019-05-28T15:56:58.689Z,70.80
2019-05-28T15:59:27.406Z,72.90
2019-05-28T16:01:56.109Z,75.00
2019-05-28T16:04:24.817Z,76.60
2019-05-28T16:06:53.516Z,76.90
2019-05-28T16:09:22.282Z,76.70
2019-05-28T16:11:50.992Z,76.70
2019-05-28T16:14:19.684Z,77.20
2019-05-28T16:16:48.405Z,77.50
2019-05-28T16:19:17.124Z,76.80
2019-05-28T16:21:45.817Z,76.40
2019-05-28T16:24:14.535Z,76.20
2019-05-28T16:26:43.239Z,76.10
2019-05-28T16:29:11.975Z,76.80
2019-05-28T16:31:40.685Z,76.80
2019-05-28T16:34:09.393Z,77.50
2019-05-28T16:36:38.100Z,79.90
2019-05-28T16:39:09.191Z,77.30
2019-05-28T16:41:37.904Z,79.90
2019-05-28T16:44:07.043Z,81.60
2019-05-28T16:46:35.769Z,79.40
2019-05-28T16:49:04.848Z,81.00
2019-05-28T16:51:33.565Z,79.80
2019-05-28T16:54:18.182Z,79.10
2019-05-28T16:56:32.613Z,80.40
2019-05-28T16:59:01.361Z,79.60
2019-05-28T17:01:30.059Z,78.00
2019-05-28T17:03:58.757Z,78.20
2019-05-28T17:06:27.483Z,78.80
2019-05-28T17:08:56.179Z,79.80
2019-05-28T17:11:27.575Z,80.30
2019-05-28T17:13:55.291Z,80.70
2019-05-28T17:16:23.962Z,80.20
2019-05-28T17:18:52.662Z,80.50
2019-05-28T17:21:23.108Z,81.70
2019-05-28T17:23:51.748Z,80.30
2019-05-28T17:26:20.470Z,82.50
2019-05-28T17:28:49.181Z,79.40
2019-05-28T17:31:17.889Z,79.40
2019-05-28T17:33:46.602Z,78.80
2019-05-28T17:36:15.381Z,79.50
2019-05-28T17:38:44.099Z,80.90
2019-05-28T17:41:12.822Z,80.50
2019-05-28T17:43:41.514Z,81.80
2019-05-28T17:46:10.317Z,81.30
2019-05-28T17:48:39.013Z,79.90
2019-05-28T17:51:07.741Z,80.80
2019-05-28T17:53:36.450Z,81.80
2019-05-28T17:56:07.929Z,83.40
2019-05-28T17:58:35.592Z,82.90
2019-05-28T18:01:04.294Z,82.90
2019-05-28T18:03:35.250Z,83.80
2019-05-28T18:06:03.468Z,84.10
2019-05-28T18:08:32.177Z,82.80
2019-05-28T18:11:04.266Z,82.00
2019-05-28T18:13:31.333Z,80.00
2019-05-28T18:16:00.041Z,80.30
2019-05-28T18:18:28.747Z,81.20
2019-05-28T18:20:57.453Z,79.90
2019-05-28T18:23:26.169Z,80.80
2019-05-28T18:25:54.878Z,81.80
2019-05-28T18:28:23.664Z,80.70
2019-05-28T18:30:52.371Z,82.30
2019-05-28T18:33:21.093Z,82.20
2019-05-28T18:35:49.802Z,82.80
2019-05-28T18:38:18.499Z,81.80
2019-05-28T18:40:47.287Z,83.20
2019-05-28T18:43:15.994Z,83.00
2019-05-28T18:45:44.701Z,83.40
2019-05-28T18:48:13.422Z,84.70
2019-05-28T18:50:42.135Z,84.90
2019-05-28T18:53:10.854Z,85.30
2019-05-28T18:55:39.557Z,86.40
2019-05-28T18:58:08.353Z,86.50
2019-05-28T19:00:37.241Z,87.00
2019-05-28T19:03:05.953Z,88.70
2019-05-28T19:05:34.664Z,88.30
2019-05-28T19:08:03.358Z,89.10
2019-05-28T19:10:32.149Z,89.30
2019-05-28T19:13:00.859Z,89.20
2019-05-28T19:15:29.558Z,89.20
2019-05-28T19:17:58.279Z,89.50
2019-05-28T19:20:26.978Z,89.60
2019-05-28T19:22:55.697Z,90.30
2019-05-28T19:25:24.494Z,90.40
2019-05-28T19:27:53.193Z,91.20
2019-05-28T19:30:33.250Z,91.70
2019-05-28T19:33:03.156Z,91.20
2019-05-28T19:35:31.854Z,91.70
2019-05-28T19:38:00.570Z,91.50
2019-05-28T19:40:34.910Z,92.60
2019-05-28T19:43:04.316Z,92.50
2019-05-28T19:45:33.118Z,93.30
2019-05-28T19:48:01.822Z,93.30
2019-05-28T19:50:30.531Z,93.10
2019-05-28T19:52:59.241Z,93.60
2019-05-28T19:55:27.933Z,94.10
2019-05-28T19:57:56.632Z,94.20
2019-05-28T20:00:25.463Z,94.20
2019-05-28T20:02:54.153Z,94.50
2019-05-28T20:05:22.889Z,94.30
2019-05-28T20:07:51.608Z,94.60
2019-05-28T20:10:20.397Z,94.50
2019-05-28T20:12:49.110Z,94.80
2019-05-28T20:15:19.994Z,94.70
2019-05-28T20:17:48.698Z,94.50
2019-05-28T20:20:17.617Z,94.20
2019-05-28T20:22:46.319Z,94.50
2019-05-28T20:25:15.617Z,94.50
2019-05-28T20:27:45.637Z,94.60
2019-05-28T20:30:16.722Z,94.70
2019-05-28T20:32:45.423Z,94.00
2019-05-28T20:35:14.119Z,94.80
2019-05-28T20:37:42.827Z,95.00
2019-05-28T20:40:12.234Z,95.20
2019-05-28T20:42:40.947Z,94.60
2019-05-28T20:45:12.143Z,95.20
2019-05-28T20:47:41.013Z,95.40
2019-05-28T20:50:11.501Z,96.00
2019-05-28T20:52:40.547Z,95.70
2019-05-28T20:55:10.428Z,95.40
2019-05-28T20:57:39.128Z,95.30
2019-05-28T21:00:10.915Z,95.60
2019-05-28T21:02:39.706Z,95.70
2019-05-28T21:05:08.581Z,96.20
2019-05-28T21:07:37.294Z,95.40
2019-05-28T21:10:07.897Z,95.30
2019-05-28T21:12:43.760Z,95.70
2019-05-28T21:15:11.274Z,95.60
2019-05-28T21:17:39.976Z,95.20
2019-05-28T21:20:10.481Z,95.10
2019-05-28T21:22:39.181Z,94.80
2019-05-28T21:25:08.292Z,95.30
2019-05-28T21:27:37.016Z,96.10
2019-05-28T21:30:07.928Z,95.70
2019-05-28T21:32:36.632Z,97.00
2019-05-28T21:35:06.545Z,97.10
2019-05-28T21:37:35.244Z,96.60
2019-05-28T21:40:05.262Z,95.90
2019-05-28T21:42:34.160Z,95.80
2019-05-28T21:45:02.873Z,96.10
2019-05-28T21:47:31.570Z,96.30
2019-05-28T21:50:01.024Z,95.70
2019-05-28T21:52:30.686Z,96.30
2019-05-28T21:54:59.401Z,96.20
2019-05-28T21:57:28.097Z,96.50
2019-05-28T21:59:57.862Z,96.30
2019-05-28T22:02:26.721Z,96.40
2019-05-28T22:04:55.499Z,96.20
2019-05-28T22:07:24.270Z,96.40
2019-05-28T22:09:53.039Z,96.80
2019-05-28T22:12:21.822Z,97.00
2019-05-28T22:14:50.590Z,97.40
2019-05-28T22:17:19.369Z,97.10
2019-05-28T22:19:48.189Z,97.70
2019-05-28T22:22:16.960Z,97.40
2019-05-28T22:24:45.795Z,97.80
2019-05-28T22:27:14.520Z,97.80
2019-05-28T22:29:43.298Z,98.20
2019-05-28T22:32:12.087Z,98.10
2019-05-28T22:34:40.856Z,98.20
2019-05-28T22:37:09.648Z,98.30
2019-05-28T22:39:38.417Z,98.60
2019-05-28T22:42:07.966Z,98.60
2019-05-28T22:44:36.791Z,98.30
2019-05-28T22:47:05.561Z,98.60
2019-05-28T22:49:34.356Z,98.80
2019-05-28T22:52:03.927Z,98.40
2019-05-28T22:54:32.792Z,98.60
2019-05-28T22:57:03.256Z,98.70
2019-05-28T22:59:32.035Z,98.70
2019-05-28T23:02:00.950Z,98.80
2019-05-28T23:04:29.749Z,98.70
2019-05-28T23:06:59.171Z,98.80
2019-05-28T23:09:27.971Z,98.90
2019-05-28T23:11:56.679Z,99.10
2019-05-28T23:14:25.378Z,99.90
2019-05-28T23:16:54.157Z,99.80
2019-05-28T23:19:22.944Z,99.80
2019-05-28T23:21:51.662Z,99.80
2019-05-28T23:24:20.372Z,99.90
2019-05-28T23:26:49.161Z,99.90
2019-05-28T23:29:17.936Z,99.70
2019-05-28T23:31:46.641Z,99.80
2019-05-28T23:34:15.350Z,99.50
2019-05-28T23:36:44.045Z,99.90
2019-05-28T23:39:13.216Z,99.70
2019-05-28T23:41:42.060Z,99.10
2019-05-28T23:44:11.662Z,99.00
2019-05-28T23:46:40.497Z,99.00
2019-05-28T23:49:10.169Z,98.90
2019-05-28T23:51:38.979Z,98.90
2019-05-28T23:54:07.741Z,98.90
2019-05-28T23:56:36.391Z,99.30
2019-05-28T23:59:05.669Z,99.30
